sensor_id;sensor_type;location;lat;lon;timestamp;P1;durP1;ratioP1;P2;durP2;ratioP2
76409;SDS011;65238;42.662;23.280;2024-02-23T00:00:07;22.92;;;11.43;;
76409;SDS011;65238;42.662;23.280;2024-02-23T00:02:36;23.10;;;12.57;;
76409;SDS011;65238;42.662;23.280;2024-02-23T00:05:02;21.73;;;11.88;;
76409;SDS011;65238;42.662;23.280;2024-02-23T00:07:27;23.17;;;12.95;;
76409;SDS011;65238;42.662;23.280;2024-02-23T00:09:53;26.00;;;14.10;;
76409;SDS011;65238;42.662;23.280;2024-02-23T00:12:18;31.55;;;15.40;;
76409;SDS011;65238;42.662;23.280;2024-02-23T00:14:44;29.48;;;15.05;;
76409;SDS011;65238;42.662;23.280;2024-02-23T00:17:09;27.67;;;14.43;;
76409;SDS011;65238;42.662;23.280;2024-02-23T00:19:35;25.38;;;13.90;;
76409;SDS011;65238;42.662;23.280;2024-02-23T00:22:00;26.27;;;13.73;;
76409;SDS011;65238;42.662;23.280;2024-02-23T00:24:25;26.75;;;14.45;;
76409;SDS011;65238;42.662;23.280;2024-02-23T00:26:51;26.00;;;13.57;;
76409;SDS011;65238;42.662;23.280;2024-02-23T00:29:17;22.92;;;12.35;;
76409;SDS011;65238;42.662;23.280;2024-02-23T00:31:43;22.23;;;12.18;;
76409;SDS011;65238;42.662;23.280;2024-02-23T00:34:10;27.30;;;13.48;;
76409;SDS011;65238;42.662;23.280;2024-02-23T00:36:38;20.58;;;12.05;;
76409;SDS011;65238;42.662;23.280;2024-02-23T00:39:06;24.13;;;12.32;;
76409;SDS011;65238;42.662;23.280;2024-02-23T00:41:35;26.52;;;12.63;;
76409;SDS011;65238;42.662;23.280;2024-02-23T00:44:00;23.05;;;13.35;;
76409;SDS011;65238;42.662;23.280;2024-02-23T00:46:26;22.52;;;13.02;;
76409;SDS011;65238;42.662;23.280;2024-02-23T00:48:52;23.88;;;13.40;;
76409;SDS011;65238;42.662;23.280;2024-02-23T00:51:17;23.52;;;13.60;;
76409;SDS011;65238;42.662;23.280;2024-02-23T00:53:42;25.15;;;12.80;;
76409;SDS011;65238;42.662;23.280;2024-02-23T00:56:08;25.35;;;12.73;;
76409;SDS011;65238;42.662;23.280;2024-02-23T00:58:34;22.13;;;13.00;;
76409;SDS011;65238;42.662;23.280;2024-02-23T01:00:59;24.80;;;12.15;;
76409;SDS011;65238;42.662;23.280;2024-02-23T01:03:25;24.02;;;11.80;;
76409;SDS011;65238;42.662;23.280;2024-02-23T01:05:50;18.70;;;11.48;;
76409;SDS011;65238;42.662;23.280;2024-02-23T01:08:16;22.08;;;11.73;;
76409;SDS011;65238;42.662;23.280;2024-02-23T01:10:41;23.65;;;12.15;;
76409;SDS011;65238;42.662;23.280;2024-02-23T01:13:07;20.25;;;11.95;;
76409;SDS011;65238;42.662;23.280;2024-02-23T01:15:32;21.08;;;11.85;;
76409;SDS011;65238;42.662;23.280;2024-02-23T01:17:57;18.92;;;10.30;;
76409;SDS011;65238;42.662;23.280;2024-02-23T01:20:23;18.40;;;10.10;;
76409;SDS011;65238;42.662;23.280;2024-02-23T01:22:48;19.27;;;11.02;;
76409;SDS011;65238;42.662;23.280;2024-02-23T01:25:14;17.42;;;10.43;;
76409;SDS011;65238;42.662;23.280;2024-02-23T01:27:40;14.73;;;9.65;;
76409;SDS011;65238;42.662;23.280;2024-02-23T01:30:06;18.77;;;10.35;;
76409;SDS011;65238;42.662;23.280;2024-02-23T01:32:32;17.20;;;9.27;;
76409;SDS011;65238;42.662;23.280;2024-02-23T01:35:00;15.80;;;9.45;;
76409;SDS011;65238;42.662;23.280;2024-02-23T01:37:25;17.02;;;8.95;;
76409;SDS011;65238;42.662;23.280;2024-02-23T01:39:51;21.02;;;10.20;;
76409;SDS011;65238;42.662;23.280;2024-02-23T01:42:16;16.85;;;9.68;;
76409;SDS011;65238;42.662;23.280;2024-02-23T01:44:42;18.67;;;9.55;;
76409;SDS011;65238;42.662;23.280;2024-02-23T01:47:07;15.85;;;8.73;;
76409;SDS011;65238;42.662;23.280;2024-02-23T01:49:33;17.05;;;9.18;;
76409;SDS011;65238;42.662;23.280;2024-02-23T01:52:00;15.38;;;8.77;;
76409;SDS011;65238;42.662;23.280;2024-02-23T01:54:26;16.35;;;8.48;;
76409;SDS011;65238;42.662;23.280;2024-02-23T01:56:53;15.38;;;8.85;;
76409;SDS011;65238;42.662;23.280;2024-02-23T01:59:20;14.70;;;9.00;;
76409;SDS011;65238;42.662;23.280;2024-02-23T02:01:46;18.15;;;9.50;;
76409;SDS011;65238;42.662;23.280;2024-02-23T02:04:12;15.35;;;8.23;;
76409;SDS011;65238;42.662;23.280;2024-02-23T02:06:37;13.43;;;8.10;;
76409;SDS011;65238;42.662;23.280;2024-02-23T02:09:03;13.63;;;8.48;;
76409;SDS011;65238;42.662;23.280;2024-02-23T02:11:28;15.65;;;8.00;;
76409;SDS011;65238;42.662;23.280;2024-02-23T02:13:54;15.35;;;8.90;;
76409;SDS011;65238;42.662;23.280;2024-02-23T02:16:19;14.60;;;8.90;;
76409;SDS011;65238;42.662;23.280;2024-02-23T02:18:44;17.38;;;9.20;;
76409;SDS011;65238;42.662;23.280;2024-02-23T02:21:11;17.83;;;8.68;;
76409;SDS011;65238;42.662;23.280;2024-02-23T02:23:36;17.25;;;9.27;;
76409;SDS011;65238;42.662;23.280;2024-02-23T02:26:02;16.50;;;8.90;;
76409;SDS011;65238;42.662;23.280;2024-02-23T02:28:28;15.43;;;9.00;;
76409;SDS011;65238;42.662;23.280;2024-02-23T02:30:53;15.82;;;9.25;;
76409;SDS011;65238;42.662;23.280;2024-02-23T02:33:19;16.33;;;8.80;;
76409;SDS011;65238;42.662;23.280;2024-02-23T02:35:45;16.77;;;9.55;;
76409;SDS011;65238;42.662;23.280;2024-02-23T02:38:10;15.60;;;8.63;;
76409;SDS011;65238;42.662;23.280;2024-02-23T02:40:36;18.60;;;9.98;;
76409;SDS011;65238;42.662;23.280;2024-02-23T02:43:02;19.75;;;9.55;;
76409;SDS011;65238;42.662;23.280;2024-02-23T02:45:27;14.57;;;9.10;;
76409;SDS011;65238;42.662;23.280;2024-02-23T02:47:53;17.00;;;9.43;;
76409;SDS011;65238;42.662;23.280;2024-02-23T02:50:18;17.92;;;10.10;;
76409;SDS011;65238;42.662;23.280;2024-02-23T02:52:44;18.00;;;9.45;;
76409;SDS011;65238;42.662;23.280;2024-02-23T02:55:09;17.15;;;9.32;;
76409;SDS011;65238;42.662;23.280;2024-02-23T02:57:34;14.77;;;9.00;;
76409;SDS011;65238;42.662;23.280;2024-02-23T03:00:03;17.02;;;9.50;;
76409;SDS011;65238;42.662;23.280;2024-02-23T03:02:33;16.90;;;9.23;;
76409;SDS011;65238;42.662;23.280;2024-02-23T03:05:00;19.58;;;9.13;;
76409;SDS011;65238;42.662;23.280;2024-02-23T03:07:25;21.00;;;10.75;;
76409;SDS011;65238;42.662;23.280;2024-02-23T03:09:50;18.10;;;9.73;;
76409;SDS011;65238;42.662;23.280;2024-02-23T03:12:16;18.67;;;9.90;;
76409;SDS011;65238;42.662;23.280;2024-02-23T03:14:42;17.52;;;10.57;;
76409;SDS011;65238;42.662;23.280;2024-02-23T03:17:08;21.98;;;10.18;;
76409;SDS011;65238;42.662;23.280;2024-02-23T03:19:34;15.90;;;10.02;;
76409;SDS011;65238;42.662;23.280;2024-02-23T03:22:00;17.20;;;9.63;;
76409;SDS011;65238;42.662;23.280;2024-02-23T03:24:26;16.42;;;9.88;;
76409;SDS011;65238;42.662;23.280;2024-02-23T03:26:51;17.88;;;10.45;;
76409;SDS011;65238;42.662;23.280;2024-02-23T03:29:17;19.30;;;10.27;;
76409;SDS011;65238;42.662;23.280;2024-02-23T03:31:42;20.88;;;11.73;;
76409;SDS011;65238;42.662;23.280;2024-02-23T03:34:08;18.15;;;10.88;;
76409;SDS011;65238;42.662;23.280;2024-02-23T03:36:33;18.92;;;10.98;;
76409;SDS011;65238;42.662;23.280;2024-02-23T03:39:00;18.05;;;10.43;;
76409;SDS011;65238;42.662;23.280;2024-02-23T03:41:25;20.40;;;11.57;;
76409;SDS011;65238;42.662;23.280;2024-02-23T03:43:51;25.08;;;11.93;;
76409;SDS011;65238;42.662;23.280;2024-02-23T03:46:16;30.52;;;14.45;;
76409;SDS011;65238;42.662;23.280;2024-02-23T03:48:42;27.25;;;12.25;;
76409;SDS011;65238;42.662;23.280;2024-02-23T03:51:08;21.98;;;11.23;;
76409;SDS011;65238;42.662;23.280;2024-02-23T03:53:34;24.83;;;12.30;;
76409;SDS011;65238;42.662;23.280;2024-02-23T03:56:00;19.27;;;10.68;;
76409;SDS011;65238;42.662;23.280;2024-02-23T03:58:25;19.20;;;10.38;;
76409;SDS011;65238;42.662;23.280;2024-02-23T04:00:51;20.73;;;11.60;;
76409;SDS011;65238;42.662;23.280;2024-02-23T04:03:16;16.17;;;9.75;;
76409;SDS011;65238;42.662;23.280;2024-02-23T04:05:42;24.92;;;12.05;;
76409;SDS011;65238;42.662;23.280;2024-02-23T04:08:07;28.60;;;12.93;;
76409;SDS011;65238;42.662;23.280;2024-02-23T04:10:33;18.33;;;10.52;;
76409;SDS011;65238;42.662;23.280;2024-02-23T04:12:58;18.02;;;11.27;;
76409;SDS011;65238;42.662;23.280;2024-02-23T04:15:23;19.40;;;10.60;;
76409;SDS011;65238;42.662;23.280;2024-02-23T04:17:49;20.85;;;10.80;;
76409;SDS011;65238;42.662;23.280;2024-02-23T04:20:14;24.77;;;11.77;;
76409;SDS011;65238;42.662;23.280;2024-02-23T04:22:40;20.30;;;11.77;;
76409;SDS011;65238;42.662;23.280;2024-02-23T04:25:05;19.20;;;11.30;;
76409;SDS011;65238;42.662;23.280;2024-02-23T04:27:31;20.17;;;11.27;;
76409;SDS011;65238;42.662;23.280;2024-02-23T04:29:56;20.88;;;11.27;;
76409;SDS011;65238;42.662;23.280;2024-02-23T04:32:22;19.48;;;11.20;;
76409;SDS011;65238;42.662;23.280;2024-02-23T04:34:48;19.58;;;11.18;;
76409;SDS011;65238;42.662;23.280;2024-02-23T04:37:13;20.83;;;10.52;;
76409;SDS011;65238;42.662;23.280;2024-02-23T04:39:39;18.42;;;10.15;;
76409;SDS011;65238;42.662;23.280;2024-02-23T04:42:07;19.25;;;10.80;;
76409;SDS011;65238;42.662;23.280;2024-02-23T04:44:33;17.13;;;10.55;;
76409;SDS011;65238;42.662;23.280;2024-02-23T04:46:59;19.38;;;10.88;;
76409;SDS011;65238;42.662;23.280;2024-02-23T04:49:25;17.75;;;10.57;;
76409;SDS011;65238;42.662;23.280;2024-02-23T04:51:50;22.42;;;11.10;;
76409;SDS011;65238;42.662;23.280;2024-02-23T04:54:16;21.05;;;10.57;;
76409;SDS011;65238;42.662;23.280;2024-02-23T04:56:41;19.48;;;11.05;;
76409;SDS011;65238;42.662;23.280;2024-02-23T04:59:07;20.75;;;11.75;;
76409;SDS011;65238;42.662;23.280;2024-02-23T05:01:36;21.40;;;10.57;;
76409;SDS011;65238;42.662;23.280;2024-02-23T05:04:02;19.52;;;10.52;;
76409;SDS011;65238;42.662;23.280;2024-02-23T05:06:28;19.27;;;11.77;;
76409;SDS011;65238;42.662;23.280;2024-02-23T05:08:54;18.00;;;10.98;;
76409;SDS011;65238;42.662;23.280;2024-02-23T05:11:19;23.65;;;12.55;;
76409;SDS011;65238;42.662;23.280;2024-02-23T05:13:45;22.05;;;11.88;;
76409;SDS011;65238;42.662;23.280;2024-02-23T05:16:10;25.52;;;11.85;;
76409;SDS011;65238;42.662;23.280;2024-02-23T05:18:38;22.13;;;11.93;;
76409;SDS011;65238;42.662;23.280;2024-02-23T05:21:03;18.20;;;10.75;;
76409;SDS011;65238;42.662;23.280;2024-02-23T05:23:30;21.55;;;11.70;;
76409;SDS011;65238;42.662;23.280;2024-02-23T05:25:55;22.83;;;12.60;;
76409;SDS011;65238;42.662;23.280;2024-02-23T05:28:20;21.55;;;12.23;;
76409;SDS011;65238;42.662;23.280;2024-02-23T05:30:46;26.17;;;14.98;;
76409;SDS011;65238;42.662;23.280;2024-02-23T05:33:11;30.48;;;14.70;;
76409;SDS011;65238;42.662;23.280;2024-02-23T05:35:36;27.00;;;14.98;;
76409;SDS011;65238;42.662;23.280;2024-02-23T05:38:02;23.25;;;13.43;;
76409;SDS011;65238;42.662;23.280;2024-02-23T05:40:27;19.65;;;11.07;;
76409;SDS011;65238;42.662;23.280;2024-02-23T05:42:53;23.73;;;12.68;;
76409;SDS011;65238;42.662;23.280;2024-02-23T05:45:19;24.77;;;13.40;;
76409;SDS011;65238;42.662;23.280;2024-02-23T05:47:45;25.77;;;15.02;;
76409;SDS011;65238;42.662;23.280;2024-02-23T05:50:10;28.08;;;13.25;;
76409;SDS011;65238;42.662;23.280;2024-02-23T05:52:36;23.63;;;12.90;;
76409;SDS011;65238;42.662;23.280;2024-02-23T05:55:02;21.80;;;12.95;;
76409;SDS011;65238;42.662;23.280;2024-02-23T05:57:29;26.45;;;13.77;;
76409;SDS011;65238;42.662;23.280;2024-02-23T05:59:54;25.67;;;14.20;;
76409;SDS011;65238;42.662;23.280;2024-02-23T06:02:23;26.98;;;14.70;;
76409;SDS011;65238;42.662;23.280;2024-02-23T06:04:49;27.40;;;14.27;;
76409;SDS011;65238;42.662;23.280;2024-02-23T06:07:14;21.95;;;12.95;;
76409;SDS011;65238;42.662;23.280;2024-02-23T06:09:43;28.15;;;13.40;;
76409;SDS011;65238;42.662;23.280;2024-02-23T06:12:08;25.20;;;13.32;;
76409;SDS011;65238;42.662;23.280;2024-02-23T06:14:34;23.95;;;14.48;;
76409;SDS011;65238;42.662;23.280;2024-02-23T06:17:00;26.98;;;13.63;;
76409;SDS011;65238;42.662;23.280;2024-02-23T06:19:26;23.33;;;12.40;;
76409;SDS011;65238;42.662;23.280;2024-02-23T06:21:51;24.77;;;13.98;;
76409;SDS011;65238;42.662;23.280;2024-02-23T06:24:16;22.20;;;12.65;;
76409;SDS011;65238;42.662;23.280;2024-02-23T06:26:43;20.00;;;11.52;;
76409;SDS011;65238;42.662;23.280;2024-02-23T06:29:08;19.45;;;11.55;;
76409;SDS011;65238;42.662;23.280;2024-02-23T06:31:38;20.95;;;12.27;;
76409;SDS011;65238;42.662;23.280;2024-02-23T06:34:06;21.17;;;11.73;;
76409;SDS011;65238;42.662;23.280;2024-02-23T06:36:32;22.25;;;11.73;;
76409;SDS011;65238;42.662;23.280;2024-02-23T06:38:58;19.55;;;11.05;;
76409;SDS011;65238;42.662;23.280;2024-02-23T06:41:23;21.10;;;12.63;;
76409;SDS011;65238;42.662;23.280;2024-02-23T06:43:48;20.00;;;11.23;;
76409;SDS011;65238;42.662;23.280;2024-02-23T06:46:14;24.15;;;12.52;;
76409;SDS011;65238;42.662;23.280;2024-02-23T06:48:39;21.90;;;12.07;;
76409;SDS011;65238;42.662;23.280;2024-02-23T06:51:05;20.00;;;11.88;;
76409;SDS011;65238;42.662;23.280;2024-02-23T06:53:34;22.77;;;11.90;;
76409;SDS011;65238;42.662;23.280;2024-02-23T06:56:00;24.83;;;13.10;;
76409;SDS011;65238;42.662;23.280;2024-02-23T06:58:26;31.35;;;12.98;;
76409;SDS011;65238;42.662;23.280;2024-02-23T07:00:51;20.42;;;11.50;;
76409;SDS011;65238;42.662;23.280;2024-02-23T07:03:17;22.48;;;11.20;;
76409;SDS011;65238;42.662;23.280;2024-02-23T07:05:43;21.50;;;11.65;;
76409;SDS011;65238;42.662;23.280;2024-02-23T07:08:08;29.00;;;12.57;;
76409;SDS011;65238;42.662;23.280;2024-02-23T07:10:34;23.23;;;11.75;;
76409;SDS011;65238;42.662;23.280;2024-02-23T07:13:00;25.35;;;12.15;;
76409;SDS011;65238;42.662;23.280;2024-02-23T07:15:25;19.02;;;11.48;;
76409;SDS011;65238;42.662;23.280;2024-02-23T07:17:54;21.05;;;11.70;;
76409;SDS011;65238;42.662;23.280;2024-02-23T07:20:20;16.75;;;11.48;;
76409;SDS011;65238;42.662;23.280;2024-02-23T07:22:46;20.63;;;11.57;;
76409;SDS011;65238;42.662;23.280;2024-02-23T07:25:11;24.02;;;11.93;;
76409;SDS011;65238;42.662;23.280;2024-02-23T07:27:37;19.20;;;11.07;;
76409;SDS011;65238;42.662;23.280;2024-02-23T07:30:02;20.67;;;11.85;;
76409;SDS011;65238;42.662;23.280;2024-02-23T07:32:29;17.42;;;10.85;;
76409;SDS011;65238;42.662;23.280;2024-02-23T07:34:55;23.45;;;12.18;;
76409;SDS011;65238;42.662;23.280;2024-02-23T07:37:20;19.40;;;11.85;;
76409;SDS011;65238;42.662;23.280;2024-02-23T07:39:46;20.45;;;11.80;;
76409;SDS011;65238;42.662;23.280;2024-02-23T07:42:11;19.58;;;11.27;;
76409;SDS011;65238;42.662;23.280;2024-02-23T07:44:39;26.70;;;12.40;;
76409;SDS011;65238;42.662;23.280;2024-02-23T07:47:05;18.35;;;11.10;;
76409;SDS011;65238;42.662;23.280;2024-02-23T07:49:30;23.70;;;11.80;;
76409;SDS011;65238;42.662;23.280;2024-02-23T07:51:56;19.88;;;11.82;;
76409;SDS011;65238;42.662;23.280;2024-02-23T07:54:21;18.15;;;10.95;;
76409;SDS011;65238;42.662;23.280;2024-02-23T07:56:47;21.40;;;12.13;;
76409;SDS011;65238;42.662;23.280;2024-02-23T07:59:12;16.90;;;10.95;;
76409;SDS011;65238;42.662;23.280;2024-02-23T08:01:38;21.92;;;11.75;;
76409;SDS011;65238;42.662;23.280;2024-02-23T08:04:05;28.40;;;12.35;;
76409;SDS011;65238;42.662;23.280;2024-02-23T08:06:30;19.65;;;10.82;;
76409;SDS011;65238;42.662;23.280;2024-02-23T08:08:56;19.52;;;12.70;;
76409;SDS011;65238;42.662;23.280;2024-02-23T08:11:21;22.08;;;11.52;;
76409;SDS011;65238;42.662;23.280;2024-02-23T08:13:47;22.52;;;12.30;;
76409;SDS011;65238;42.662;23.280;2024-02-23T08:16:12;21.73;;;12.75;;
76409;SDS011;65238;42.662;23.280;2024-02-23T08:18:37;19.98;;;11.23;;
76409;SDS011;65238;42.662;23.280;2024-02-23T08:21:03;22.27;;;12.85;;
76409;SDS011;65238;42.662;23.280;2024-02-23T08:23:30;18.92;;;11.57;;
76409;SDS011;65238;42.662;23.280;2024-02-23T08:25:56;18.75;;;11.05;;
76409;SDS011;65238;42.662;23.280;2024-02-23T08:28:23;18.60;;;11.30;;
76409;SDS011;65238;42.662;23.280;2024-02-23T08:30:49;20.58;;;11.25;;
76409;SDS011;65238;42.662;23.280;2024-02-23T08:33:14;21.35;;;12.52;;
76409;SDS011;65238;42.662;23.280;2024-02-23T08:35:40;20.77;;;12.15;;
76409;SDS011;65238;42.662;23.280;2024-02-23T08:38:14;19.15;;;12.23;;
76409;SDS011;65238;42.662;23.280;2024-02-23T08:40:40;19.55;;;12.10;;
76409;SDS011;65238;42.662;23.280;2024-02-23T08:43:07;18.83;;;11.38;;
76409;SDS011;65238;42.662;23.280;2024-02-23T08:45:32;21.50;;;10.73;;
76409;SDS011;65238;42.662;23.280;2024-02-23T08:47:57;17.70;;;11.45;;
76409;SDS011;65238;42.662;23.280;2024-02-23T08:50:23;19.20;;;11.40;;
76409;SDS011;65238;42.662;23.280;2024-02-23T08:52:49;17.63;;;11.27;;
76409;SDS011;65238;42.662;23.280;2024-02-23T08:55:14;23.08;;;12.10;;
76409;SDS011;65238;42.662;23.280;2024-02-23T08:57:40;22.85;;;12.57;;
76409;SDS011;65238;42.662;23.280;2024-02-23T09:00:05;18.40;;;11.43;;
76409;SDS011;65238;42.662;23.280;2024-02-23T09:02:31;31.42;;;12.52;;
76409;SDS011;65238;42.662;23.280;2024-02-23T09:05:00;17.90;;;9.73;;
76409;SDS011;65238;42.662;23.280;2024-02-23T09:07:26;15.30;;;9.15;;
76409;SDS011;65238;42.662;23.280;2024-02-23T09:09:52;11.07;;;7.45;;
76409;SDS011;65238;42.662;23.280;2024-02-23T09:12:18;15.95;;;7.70;;
76409;SDS011;65238;42.662;23.280;2024-02-23T09:14:43;13.23;;;7.40;;
76409;SDS011;65238;42.662;23.280;2024-02-23T09:17:09;10.57;;;6.50;;
76409;SDS011;65238;42.662;23.280;2024-02-23T09:19:36;10.48;;;6.20;;
76409;SDS011;65238;42.662;23.280;2024-02-23T09:22:01;9.85;;;5.82;;
76409;SDS011;65238;42.662;23.280;2024-02-23T09:24:27;8.05;;;4.60;;
76409;SDS011;65238;42.662;23.280;2024-02-23T09:26:53;13.00;;;5.82;;
76409;SDS011;65238;42.662;23.280;2024-02-23T09:29:18;10.43;;;5.95;;
76409;SDS011;65238;42.662;23.280;2024-02-23T09:31:44;10.07;;;5.50;;
76409;SDS011;65238;42.662;23.280;2024-02-23T09:34:10;9.18;;;5.88;;
76409;SDS011;65238;42.662;23.280;2024-02-23T09:36:35;9.23;;;5.30;;
76409;SDS011;65238;42.662;23.280;2024-02-23T09:39:00;9.40;;;5.15;;
76409;SDS011;65238;42.662;23.280;2024-02-23T09:41:27;9.90;;;5.63;;
76409;SDS011;65238;42.662;23.280;2024-02-23T09:43:52;6.72;;;5.03;;
76409;SDS011;65238;42.662;23.280;2024-02-23T09:46:23;13.30;;;6.20;;
76409;SDS011;65238;42.662;23.280;2024-02-23T09:48:48;8.38;;;5.45;;
76409;SDS011;65238;42.662;23.280;2024-02-23T09:51:15;8.25;;;5.22;;
76409;SDS011;65238;42.662;23.280;2024-02-23T09:53:41;7.50;;;4.57;;
76409;SDS011;65238;42.662;23.280;2024-02-23T09:56:08;13.60;;;6.63;;
76409;SDS011;65238;42.662;23.280;2024-02-23T09:58:34;8.75;;;4.72;;
76409;SDS011;65238;42.662;23.280;2024-02-23T10:01:00;9.40;;;4.53;;
76409;SDS011;65238;42.662;23.280;2024-02-23T10:03:27;7.95;;;4.13;;
76409;SDS011;65238;42.662;23.280;2024-02-23T10:05:56;5.32;;;3.85;;
76409;SDS011;65238;42.662;23.280;2024-02-23T10:08:22;5.22;;;3.45;;
76409;SDS011;65238;42.662;23.280;2024-02-23T10:10:48;4.90;;;3.25;;
76409;SDS011;65238;42.662;23.280;2024-02-23T10:13:24;6.25;;;3.35;;
76409;SDS011;65238;42.662;23.280;2024-02-23T10:15:50;7.47;;;3.53;;
76409;SDS011;65238;42.662;23.280;2024-02-23T10:18:16;5.57;;;3.50;;
76409;SDS011;65238;42.662;23.280;2024-02-23T10:20:42;4.72;;;3.47;;
76409;SDS011;65238;42.662;23.280;2024-02-23T10:23:08;4.68;;;3.05;;
76409;SDS011;65238;42.662;23.280;2024-02-23T10:25:34;5.18;;;3.35;;
76409;SDS011;65238;42.662;23.280;2024-02-23T10:28:03;4.43;;;2.80;;
76409;SDS011;65238;42.662;23.280;2024-02-23T10:30:30;3.33;;;2.67;;
76409;SDS011;65238;42.662;23.280;2024-02-23T10:32:56;5.20;;;3.15;;
76409;SDS011;65238;42.662;23.280;2024-02-23T10:35:23;6.43;;;2.95;;
76409;SDS011;65238;42.662;23.280;2024-02-23T10:37:49;4.63;;;3.15;;
76409;SDS011;65238;42.662;23.280;2024-02-23T10:40:17;4.10;;;2.53;;
76409;SDS011;65238;42.662;23.280;2024-02-23T10:42:44;5.45;;;2.60;;
76409;SDS011;65238;42.662;23.280;2024-02-23T10:45:15;5.20;;;2.78;;
76409;SDS011;65238;42.662;23.280;2024-02-23T10:47:41;2.63;;;2.20;;
76409;SDS011;65238;42.662;23.280;2024-02-23T10:50:07;2.75;;;1.92;;
76409;SDS011;65238;42.662;23.280;2024-02-23T10:52:33;3.25;;;2.47;;
76409;SDS011;65238;42.662;23.280;2024-02-23T10:55:00;4.80;;;2.85;;
76409;SDS011;65238;42.662;23.280;2024-02-23T10:57:29;9.38;;;2.55;;
76409;SDS011;65238;42.662;23.280;2024-02-23T10:59:56;4.10;;;2.78;;
76409;SDS011;65238;42.662;23.280;2024-02-23T11:02:22;3.30;;;2.15;;
76409;SDS011;65238;42.662;23.280;2024-02-23T11:04:49;3.67;;;2.30;;
76409;SDS011;65238;42.662;23.280;2024-02-23T11:07:15;2.45;;;2.10;;
76409;SDS011;65238;42.662;23.280;2024-02-23T11:09:48;2.50;;;1.85;;
76409;SDS011;65238;42.662;23.280;2024-02-23T11:12:23;4.13;;;2.33;;
76409;SDS011;65238;42.662;23.280;2024-02-23T11:14:56;3.72;;;2.25;;
76409;SDS011;65238;42.662;23.280;2024-02-23T11:19:51;6.90;;;2.13;;
76409;SDS011;65238;42.662;23.280;2024-02-23T11:22:35;4.47;;;2.10;;
76409;SDS011;65238;42.662;23.280;2024-02-23T11:25:07;9.93;;;2.55;;
76409;SDS011;65238;42.662;23.280;2024-02-23T11:27:34;4.45;;;1.83;;
76409;SDS011;65238;42.662;23.280;2024-02-23T11:30:02;2.85;;;2.05;;
76409;SDS011;65238;42.662;23.280;2024-02-23T11:33:02;5.68;;;2.15;;
76409;SDS011;65238;42.662;23.280;2024-02-23T11:35:25;3.78;;;1.90;;
76409;SDS011;65238;42.662;23.280;2024-02-23T11:37:54;4.97;;;2.22;;
76409;SDS011;65238;42.662;23.280;2024-02-23T11:40:30;5.72;;;2.17;;
76409;SDS011;65238;42.662;23.280;2024-02-23T11:42:56;5.22;;;2.30;;
76409;SDS011;65238;42.662;23.280;2024-02-23T11:45:21;9.30;;;2.45;;
76409;SDS011;65238;42.662;23.280;2024-02-23T11:47:47;5.43;;;2.85;;
76409;SDS011;65238;42.662;23.280;2024-02-23T11:50:13;4.00;;;2.20;;
76409;SDS011;65238;42.662;23.280;2024-02-23T11:52:39;3.03;;;1.92;;
76409;SDS011;65238;42.662;23.280;2024-02-23T11:55:06;3.22;;;1.90;;
76409;SDS011;65238;42.662;23.280;2024-02-23T11:57:33;3.17;;;2.30;;
76409;SDS011;65238;42.662;23.280;2024-02-23T12:00:00;4.97;;;1.75;;
76409;SDS011;65238;42.662;23.280;2024-02-23T12:02:27;3.15;;;2.17;;
76409;SDS011;65238;42.662;23.280;2024-02-23T12:04:52;5.80;;;2.03;;
76409;SDS011;65238;42.662;23.280;2024-02-23T12:07:18;3.75;;;1.75;;
76409;SDS011;65238;42.662;23.280;2024-02-23T12:09:44;4.07;;;2.15;;
76409;SDS011;65238;42.662;23.280;2024-02-23T12:12:10;3.22;;;2.10;;
76409;SDS011;65238;42.662;23.280;2024-02-23T12:14:36;3.97;;;2.20;;
76409;SDS011;65238;42.662;23.280;2024-02-23T12:17:02;4.35;;;1.90;;
76409;SDS011;65238;42.662;23.280;2024-02-23T12:19:29;3.50;;;2.20;;
76409;SDS011;65238;42.662;23.280;2024-02-23T12:21:59;4.88;;;2.15;;
76409;SDS011;65238;42.662;23.280;2024-02-23T12:24:25;3.50;;;2.00;;
76409;SDS011;65238;42.662;23.280;2024-02-23T12:26:56;5.07;;;2.08;;
76409;SDS011;65238;42.662;23.280;2024-02-23T12:29:22;6.80;;;2.28;;
76409;SDS011;65238;42.662;23.280;2024-02-23T12:31:48;3.22;;;2.30;;
76409;SDS011;65238;42.662;23.280;2024-02-23T12:34:13;3.28;;;2.22;;
76409;SDS011;65238;42.662;23.280;2024-02-23T12:36:39;3.70;;;2.08;;
76409;SDS011;65238;42.662;23.280;2024-02-23T12:39:04;4.10;;;2.17;;
76409;SDS011;65238;42.662;23.280;2024-02-23T12:41:30;2.88;;;1.77;;
76409;SDS011;65238;42.662;23.280;2024-02-23T12:43:58;2.53;;;1.90;;
76409;SDS011;65238;42.662;23.280;2024-02-23T12:46:27;4.40;;;2.10;;
76409;SDS011;65238;42.662;23.280;2024-02-23T12:48:53;4.10;;;1.83;;
76409;SDS011;65238;42.662;23.280;2024-02-23T12:51:31;3.65;;;2.20;;
76409;SDS011;65238;42.662;23.280;2024-02-23T12:53:59;3.50;;;2.40;;
76409;SDS011;65238;42.662;23.280;2024-02-23T12:56:25;3.20;;;2.03;;
76409;SDS011;65238;42.662;23.280;2024-02-23T12:58:51;3.85;;;1.80;;
76409;SDS011;65238;42.662;23.280;2024-02-23T13:01:18;2.72;;;1.95;;
76409;SDS011;65238;42.662;23.280;2024-02-23T13:03:44;7.20;;;2.15;;
76409;SDS011;65238;42.662;23.280;2024-02-23T13:06:09;3.83;;;2.08;;
76409;SDS011;65238;42.662;23.280;2024-02-23T13:08:34;2.30;;;1.67;;
76409;SDS011;65238;42.662;23.280;2024-02-23T13:11:00;3.40;;;1.63;;
76409;SDS011;65238;42.662;23.280;2024-02-23T13:13:25;2.83;;;1.98;;
76409;SDS011;65238;42.662;23.280;2024-02-23T13:15:52;5.22;;;1.63;;
76409;SDS011;65238;42.662;23.280;2024-02-23T13:18:18;2.72;;;1.80;;
76409;SDS011;65238;42.662;23.280;2024-02-23T13:20:44;4.65;;;1.90;;
76409;SDS011;65238;42.662;23.280;2024-02-23T13:23:10;3.95;;;1.90;;
76409;SDS011;65238;42.662;23.280;2024-02-23T13:25:37;2.72;;;1.73;;
76409;SDS011;65238;42.662;23.280;2024-02-23T13:28:04;4.13;;;1.80;;
76409;SDS011;65238;42.662;23.280;2024-02-23T13:30:30;3.05;;;1.70;;
76409;SDS011;65238;42.662;23.280;2024-02-23T13:32:56;6.25;;;1.67;;
76409;SDS011;65238;42.662;23.280;2024-02-23T13:35:22;3.30;;;1.90;;
76409;SDS011;65238;42.662;23.280;2024-02-23T13:37:48;3.42;;;1.90;;
76409;SDS011;65238;42.662;23.280;2024-02-23T13:40:13;2.78;;;2.00;;
76409;SDS011;65238;42.662;23.280;2024-02-23T13:42:39;3.28;;;1.98;;
76409;SDS011;65238;42.662;23.280;2024-02-23T13:45:05;2.97;;;1.90;;
76409;SDS011;65238;42.662;23.280;2024-02-23T13:47:31;9.02;;;2.00;;
76409;SDS011;65238;42.662;23.280;2024-02-23T13:49:57;3.05;;;1.90;;
76409;SDS011;65238;42.662;23.280;2024-02-23T13:52:22;5.38;;;2.72;;
76409;SDS011;65238;42.662;23.280;2024-02-23T13:54:48;2.75;;;2.30;;
76409;SDS011;65238;42.662;23.280;2024-02-23T13:57:13;3.25;;;2.00;;
76409;SDS011;65238;42.662;23.280;2024-02-23T13:59:38;4.30;;;1.90;;
76409;SDS011;65238;42.662;23.280;2024-02-23T14:02:04;2.78;;;2.00;;
76409;SDS011;65238;42.662;23.280;2024-02-23T14:04:29;4.97;;;2.10;;
76409;SDS011;65238;42.662;23.280;2024-02-23T14:06:55;4.85;;;2.00;;
76409;SDS011;65238;42.662;23.280;2024-02-23T14:09:21;2.08;;;1.50;;
76409;SDS011;65238;42.662;23.280;2024-02-23T14:11:46;6.32;;;2.00;;
76409;SDS011;65238;42.662;23.280;2024-02-23T14:14:12;7.35;;;2.60;;